sensor_id;sensor_type;location;lat;lon;timestamp;pressure;altitude;pressure_sealevel;temperature;humidity
18790;BME280;9523;42.650;23.386;2023-05-12T00:01:14;94903.06;;;9.82;99.59
18790;BME280;9523;42.650;23.386;2023-05-12T00:03:46;94900.72;;;9.81;99.63
18790;BME280;9523;42.650;23.386;2023-05-12T00:06:12;94897.31;;;9.75;100.00
18790;BME280;9523;42.650;23.386;2023-05-12T00:08:43;94900.50;;;9.72;100.00
18790;BME280;9523;42.650;23.386;2023-05-12T00:11:11;94899.44;;;9.73;99.43
18790;BME280;9523;42.650;23.386;2023-05-12T00:13:38;94902.56;;;9.75;98.96
18790;BME280;9523;42.650;23.386;2023-05-12T00:16:05;94899.91;;;9.80;98.37
18790;BME280;9523;42.650;23.386;2023-05-12T00:18:35;94898.91;;;9.76;98.85
18790;BME280;9523;42.650;23.386;2023-05-12T00:21:02;94894.75;;;9.70;100.00
18790;BME280;9523;42.650;23.386;2023-05-12T00:23:29;94896.59;;;9.65;100.00
18790;BME280;9523;42.650;23.386;2023-05-12T00:25:56;94895.31;;;9.62;100.00
18790;BME280;9523;42.650;23.386;2023-05-12T00:28:26;94898.22;;;9.61;100.00
18790;BME280;9523;42.650;23.386;2023-05-12T00:30:53;94894.31;;;9.53;100.00
18790;BME280;9523;42.650;23.386;2023-05-12T00:33:20;94895.44;;;9.47;100.00
18790;BME280;9523;42.650;23.386;2023-05-12T00:35:47;94892.75;;;9.52;100.00
18790;BME280;9523;42.650;23.386;2023-05-12T00:38:14;94887.00;;;9.45;100.00
18790;BME280;9523;42.650;23.386;2023-05-12T00:40:40;94897.28;;;9.47;100.00
18790;BME280;9523;42.650;23.386;2023-05-12T00:43:07;94902.81;;;9.45;100.00
18790;BME280;9523;42.650;23.386;2023-05-12T00:45:35;94896.50;;;9.41;100.00
18790;BME280;9523;42.650;23.386;2023-05-12T00:48:03;94899.66;;;9.43;100.00
18790;BME280;9523;42.650;23.386;2023-05-12T00:50:30;94908.13;;;9.35;100.00
18790;BME280;9523;42.650;23.386;2023-05-12T00:52:59;94896.81;;;9.34;100.00
18790;BME280;9523;42.650;23.386;2023-05-12T00:55:28;94901.34;;;9.24;100.00
18790;BME280;9523;42.650;23.386;2023-05-12T00:57:55;94904.75;;;9.24;100.00
18790;BME280;9523;42.650;23.386;2023-05-12T01:00:23;94894.56;;;9.13;100.00
18790;BME280;9523;42.650;23.386;2023-05-12T01:02:51;94911.38;;;9.17;100.00
18790;BME280;9523;42.650;23.386;2023-05-12T01:05:18;94906.19;;;9.07;100.00
18790;BME280;9523;42.650;23.386;2023-05-12T01:07:45;94905.94;;;8.98;100.00
18790;BME280;9523;42.650;23.386;2023-05-12T01:10:16;94908.88;;;8.91;100.00
18790;BME280;9523;42.650;23.386;2023-05-12T01:12:43;94914.16;;;8.81;100.00
18790;BME280;9523;42.650;23.386;2023-05-12T01:15:10;94906.81;;;8.73;100.00
18790;BME280;9523;42.650;23.386;2023-05-12T01:17:39;94906.88;;;8.63;100.00
18790;BME280;9523;42.650;23.386;2023-05-12T01:20:11;94912.41;;;8.57;100.00
18790;BME280;9523;42.650;23.386;2023-05-12T01:22:40;94915.06;;;8.46;100.00
18790;BME280;9523;42.650;23.386;2023-05-12T01:25:10;94914.03;;;8.47;100.00
18790;BME280;9523;42.650;23.386;2023-05-12T01:27:39;94910.84;;;8.40;100.00
18790;BME280;9523;42.650;23.386;2023-05-12T01:30:08;94912.44;;;8.36;100.00
18790;BME280;9523;42.650;23.386;2023-05-12T01:32:37;94912.97;;;8.33;100.00
18790;BME280;9523;42.650;23.386;2023-05-12T01:35:05;94912.44;;;8.16;100.00
18790;BME280;9523;42.650;23.386;2023-05-12T01:37:32;94914.03;;;8.07;100.00
18790;BME280;9523;42.650;23.386;2023-05-12T01:39:59;94875.97;;;7.79;100.00
18790;BME280;9523;42.650;23.386;2023-05-12T01:42:26;94908.53;;;7.93;100.00
18790;BME280;9523;42.650;23.386;2023-05-12T01:44:55;94907.50;;;7.79;100.00
18790;BME280;9523;42.650;23.386;2023-05-12T01:47:21;94911.69;;;7.70;100.00
18790;BME280;9523;42.650;23.386;2023-05-12T01:49:48;94909.81;;;7.61;100.00
18790;BME280;9523;42.650;23.386;2023-05-12T01:52:15;94919.56;;;7.60;100.00
18790;BME280;9523;42.650;23.386;2023-05-12T01:54:42;94905.34;;;7.61;100.00
18790;BME280;9523;42.650;23.386;2023-05-12T01:57:09;94910.63;;;7.61;100.00
18790;BME280;9523;42.650;23.386;2023-05-12T01:59:36;94909.28;;;7.53;100.00
18790;BME280;9523;42.650;23.386;2023-05-12T02:02:04;94876.97;;;7.33;100.00
18790;BME280;9523;42.650;23.386;2023-05-12T02:04:31;94892.72;;;7.33;100.00
18790;BME280;9523;42.650;23.386;2023-05-12T02:07:00;94917.44;;;7.47;100.00
18790;BME280;9523;42.650;23.386;2023-05-12T02:09:28;94916.38;;;7.38;100.00
18790;BME280;9523;42.650;23.386;2023-05-12T02:11:54;94911.66;;;7.40;100.00
18790;BME280;9523;42.650;23.386;2023-05-12T02:14:21;94910.34;;;7.47;100.00
18790;BME280;9523;42.650;23.386;2023-05-12T02:16:50;94920.31;;;7.50;100.00
18790;BME280;9523;42.650;23.386;2023-05-12T02:19:18;94890.91;;;7.38;100.00
18790;BME280;9523;42.650;23.386;2023-05-12T02:21:45;94896.41;;;7.37;100.00
18790;BME280;9523;42.650;23.386;2023-05-12T02:24:12;94912.72;;;7.59;100.00
18790;BME280;9523;42.650;23.386;2023-05-12T02:26:40;94896.41;;;7.37;100.00
18790;BME280;9523;42.650;23.386;2023-05-12T02:29:08;94914.28;;;7.50;100.00
18790;BME280;9523;42.650;23.386;2023-05-12T02:31:35;94925.56;;;7.50;100.00
18790;BME280;9523;42.650;23.386;2023-05-12T02:34:02;94922.69;;;7.52;100.00
18790;BME280;9523;42.650;23.386;2023-05-12T02:36:30;94910.09;;;7.54;100.00
18790;BME280;9523;42.650;23.386;2023-05-12T02:38:57;94921.13;;;7.61;100.00
18790;BME280;9523;42.650;23.386;2023-05-12T02:41:24;94914.81;;;7.52;100.00
18790;BME280;9523;42.650;23.386;2023-05-12T02:43:51;94916.41;;;7.58;100.00
18790;BME280;9523;42.650;23.386;2023-05-12T02:46:18;94918.50;;;7.51;100.00
18790;BME280;9523;42.650;23.386;2023-05-12T02:48:45;94910.59;;;7.36;100.00
18790;BME280;9523;42.650;23.386;2023-05-12T02:51:12;94917.44;;;7.47;100.00
18790;BME280;9523;42.650;23.386;2023-05-12T02:53:40;94912.44;;;7.45;100.00
18790;BME280;9523;42.650;23.386;2023-05-12T02:56:07;94912.16;;;7.42;100.00
18790;BME280;9523;42.650;23.386;2023-05-12T02:58:34;94907.19;;;7.40;100.00
18790;BME280;9523;42.650;23.386;2023-05-12T03:01:01;94914.25;;;7.45;100.00
18790;BME280;9523;42.650;23.386;2023-05-12T03:03:28;94904.28;;;7.37;100.00
18790;BME280;9523;42.650;23.386;2023-05-12T03:05:55;94917.41;;;7.37;100.00
18790;BME280;9523;42.650;23.386;2023-05-12T03:08:22;94918.47;;;7.41;100.00
18790;BME280;9523;42.650;23.386;2023-05-12T03:10:50;94923.72;;;7.41;100.00
18790;BME280;9523;42.650;23.386;2023-05-12T03:13:17;94914.50;;;7.33;100.00
18790;BME280;9523;42.650;23.386;2023-05-12T03:15:44;94914.78;;;7.32;100.00
18790;BME280;9523;42.650;23.386;2023-05-12T03:18:11;94895.06;;;7.19;100.00
18790;BME280;9523;42.650;23.386;2023-05-12T03:20:38;94922.13;;;7.35;100.00
18790;BME280;9523;42.650;23.386;2023-05-12T03:23:07;94923.72;;;7.36;100.00
18790;BME280;9523;42.650;23.386;2023-05-12T03:25:35;94917.41;;;7.42;100.00
18790;BME280;9523;42.650;23.386;2023-05-12T03:28:03;94919.28;;;7.46;100.00
18790;BME280;9523;42.650;23.386;2023-05-12T03:30:30;94927.66;;;7.48;100.00
18790;BME280;9523;42.650;23.386;2023-05-12T03:32:57;94852.28;;;7.03;100.00
18790;BME280;9523;42.650;23.386;2023-05-12T03:35:24;94931.84;;;7.44;100.00
18790;BME280;9523;42.650;23.386;2023-05-12T03:37:53;94921.09;;;7.41;100.00
18790;BME280;9523;42.650;23.386;2023-05-12T03:40:20;94938.47;;;7.52;100.00
18790;BME280;9523;42.650;23.386;2023-05-12T03:42:47;94935.81;;;7.57;100.00
18790;BME280;9523;42.650;23.386;2023-05-12T03:45:15;79026.53;;;7.56;100.00
18790;BME280;9523;42.650;23.386;2023-05-12T03:47:42;94938.22;;;7.64;100.00
18790;BME280;9523;42.650;23.386;2023-05-12T03:50:09;94931.91;;;7.75;100.00
18790;BME280;9523;42.650;23.386;2023-05-12T03:52:37;94931.91;;;7.75;100.00
18790;BME280;9523;42.650;23.386;2023-05-12T03:55:06;94931.66;;;7.71;100.00
18790;BME280;9523;42.650;23.386;2023-05-12T03:57:33;94930.84;;;7.81;100.00
18790;BME280;9523;42.650;23.386;2023-05-12T04:00:04;94926.94;;;7.68;100.00
18790;BME280;9523;42.650;23.386;2023-05-12T04:02:32;94930.06;;;7.70;100.00
18790;BME280;9523;42.650;23.386;2023-05-12T04:05:02;94930.06;;;7.70;100.00
18790;BME280;9523;42.650;23.386;2023-05-12T04:07:34;61328.44;;;7.80;100.00
18790;BME280;9523;42.650;23.386;2023-05-12T04:10:01;61328.44;;;-141.56;100.00
18790;BME280;9523;42.650;23.386;2023-05-12T04:12:28;61328.44;;;-141.56;100.00
18790;BME280;9523;42.650;23.386;2023-05-12T04:14:55;61328.44;;;-141.56;100.00
18790;BME280;9523;42.650;23.386;2023-05-12T04:17:24;61328.44;;;-141.56;100.00
18790;BME280;9523;42.650;23.386;2023-05-12T04:19:56;61328.44;;;-141.56;100.00
18790;BME280;9523;42.650;23.386;2023-05-12T04:22:23;61328.44;;;-141.56;100.00
18790;BME280;9523;42.650;23.386;2023-05-12T04:24:49;61328.44;;;-141.56;100.00
18790;BME280;9523;42.650;23.386;2023-05-12T04:27:16;61328.44;;;-141.56;100.00
18790;BME280;9523;42.650;23.386;2023-05-12T04:29:43;61328.44;;;-141.56;100.00
18790;BME280;9523;42.650;23.386;2023-05-12T04:32:13;61328.44;;;-141.56;100.00
18790;BME280;9523;42.650;23.386;2023-05-12T04:34:40;61328.44;;;-141.56;100.00
18790;BME280;9523;42.650;23.386;2023-05-12T04:37:09;61328.44;;;-141.56;100.00
18790;BME280;9523;42.650;23.386;2023-05-12T04:39:35;61328.44;;;-141.56;100.00
18790;BME280;9523;42.650;23.386;2023-05-12T04:42:02;61328.44;;;-141.56;100.00
18790;BME280;9523;42.650;23.386;2023-05-12T04:44:30;61328.44;;;-141.56;100.00
18790;BME280;9523;42.650;23.386;2023-05-12T04:46:57;61328.44;;;-141.56;100.00
18790;BME280;9523;42.650;23.386;2023-05-12T04:49:24;61328.44;;;-141.56;100.00
18790;BME280;9523;42.650;23.386;2023-05-12T04:51:50;61328.44;;;-141.56;100.00
18790;BME280;9523;42.650;23.386;2023-05-12T04:54:19;61328.44;;;-141.56;100.00
18790;BME280;9523;42.650;23.386;2023-05-12T04:56:45;61328.44;;;-141.56;100.00
18790;BME280;9523;42.650;23.386;2023-05-12T04:59:12;61328.44;;;-141.56;100.00
18790;BME280;9523;42.650;23.386;2023-05-12T05:01:40;61328.44;;;-141.56;100.00
18790;BME280;9523;42.650;23.386;2023-05-12T05:04:07;61328.44;;;-141.56;100.00
18790;BME280;9523;42.650;23.386;2023-05-12T05:06:34;61328.44;;;-141.56;100.00
18790;BME280;9523;42.650;23.386;2023-05-12T05:09:01;61328.44;;;-141.56;100.00
18790;BME280;9523;42.650;23.386;2023-05-12T05:11:30;61328.44;;;-141.56;100.00
18790;BME280;9523;42.650;23.386;2023-05-12T05:13:56;61328.44;;;-141.56;100.00
18790;BME280;9523;42.650;23.386;2023-05-12T05:16:23;61328.44;;;-141.56;100.00
18790;BME280;9523;42.650;23.386;2023-05-12T05:18:50;61328.44;;;-141.56;100.00
18790;BME280;9523;42.650;23.386;2023-05-12T05:21:17;61328.44;;;-141.56;100.00
18790;BME280;9523;42.650;23.386;2023-05-12T05:23:44;61328.44;;;-141.56;100.00
18790;BME280;9523;42.650;23.386;2023-05-12T05:26:12;61328.44;;;-141.56;100.00
18790;BME280;9523;42.650;23.386;2023-05-12T05:28:41;61328.44;;;-141.56;100.00
18790;BME280;9523;42.650;23.386;2023-05-12T05:31:14;61328.44;;;-141.56;100.00
18790;BME280;9523;42.650;23.386;2023-05-12T05:33:41;61328.44;;;-141.56;100.00
18790;BME280;9523;42.650;23.386;2023-05-12T05:36:08;61328.44;;;-141.56;100.00
18790;BME280;9523;42.650;23.386;2023-05-12T05:38:35;61328.44;;;-141.56;100.00
18790;BME280;9523;42.650;23.386;2023-05-12T05:41:02;61328.44;;;-141.56;100.00
18790;BME280;9523;42.650;23.386;2023-05-12T05:43:29;61328.44;;;-141.56;100.00
18790;BME280;9523;42.650;23.386;2023-05-12T05:45:57;61328.44;;;-141.56;100.00
18790;BME280;9523;42.650;23.386;2023-05-12T05:48:24;61328.44;;;-141.56;100.00
18790;BME280;9523;42.650;23.386;2023-05-12T05:50:52;61328.44;;;-141.56;100.00
18790;BME280;9523;42.650;23.386;2023-05-12T05:53:19;61328.44;;;-141.56;100.00
18790;BME280;9523;42.650;23.386;2023-05-12T05:55:46;61328.44;;;-141.56;100.00
18790;BME280;9523;42.650;23.386;2023-05-12T05:58:14;61328.44;;;-141.56;100.00
18790;BME280;9523;42.650;23.386;2023-05-12T06:00:41;61328.44;;;-141.56;100.00
18790;BME280;9523;42.650;23.386;2023-05-12T06:03:09;61328.44;;;-141.56;100.00
18790;BME280;9523;42.650;23.386;2023-05-12T06:05:36;61328.44;;;-141.56;100.00
18790;BME280;9523;42.650;23.386;2023-05-12T06:08:03;61328.44;;;-141.56;100.00
18790;BME280;9523;42.650;23.386;2023-05-12T06:10:33;61328.44;;;-141.56;100.00
18790;BME280;9523;42.650;23.386;2023-05-12T06:13:00;61328.44;;;-141.56;100.00
18790;BME280;9523;42.650;23.386;2023-05-12T06:15:27;61328.44;;;-141.56;100.00
18790;BME280;9523;42.650;23.386;2023-05-12T06:17:54;61328.44;;;-141.56;100.00
18790;BME280;9523;42.650;23.386;2023-05-12T06:20:22;61328.44;;;-141.56;100.00
18790;BME280;9523;42.650;23.386;2023-05-12T06:22:49;61328.44;;;-141.56;100.00
18790;BME280;9523;42.650;23.386;2023-05-12T06:25:16;61328.44;;;-141.56;100.00
18790;BME280;9523;42.650;23.386;2023-05-12T06:27:49;61328.44;;;-141.56;100.00
18790;BME280;9523;42.650;23.386;2023-05-12T06:30:18;61328.44;;;-141.56;100.00
18790;BME280;9523;42.650;23.386;2023-05-12T06:32:44;61328.44;;;-141.56;100.00
18790;BME280;9523;42.650;23.386;2023-05-12T06:35:11;61328.44;;;-141.56;100.00
18790;BME280;9523;42.650;23.386;2023-05-12T06:37:40;61328.44;;;-141.56;100.00
18790;BME280;9523;42.650;23.386;2023-05-12T06:40:09;61328.44;;;-141.56;100.00
18790;BME280;9523;42.650;23.386;2023-05-12T06:42:36;61328.44;;;-141.56;100.00
18790;BME280;9523;42.650;23.386;2023-05-12T06:45:04;61328.44;;;-141.56;100.00
18790;BME280;9523;42.650;23.386;2023-05-12T06:47:31;61328.44;;;-141.56;100.00
18790;BME280;9523;42.650;23.386;2023-05-12T06:49:58;61328.44;;;-141.56;100.00
18790;BME280;9523;42.650;23.386;2023-05-12T06:52:24;61328.44;;;-141.56;100.00
18790;BME280;9523;42.650;23.386;2023-05-12T06:54:53;61328.44;;;-141.56;100.00
18790;BME280;9523;42.650;23.386;2023-05-12T06:57:19;61328.44;;;-141.56;100.00
18790;BME280;9523;42.650;23.386;2023-05-12T06:59:48;61328.44;;;-141.56;100.00
18790;BME280;9523;42.650;23.386;2023-05-12T07:02:15;61328.44;;;-141.56;100.00
18790;BME280;9523;42.650;23.386;2023-05-12T07:04:43;61328.44;;;-141.56;100.00
18790;BME280;9523;42.650;23.386;2023-05-12T07:07:13;61328.44;;;-141.56;100.00
18790;BME280;9523;42.650;23.386;2023-05-12T07:09:40;61328.44;;;-141.56;100.00
18790;BME280;9523;42.650;23.386;2023-05-12T07:12:08;61328.44;;;-141.56;100.00
18790;BME280;9523;42.650;23.386;2023-05-12T07:14:35;61328.44;;;-141.56;100.00
18790;BME280;9523;42.650;23.386;2023-05-12T07:17:02;61328.44;;;-141.56;100.00
18790;BME280;9523;42.650;23.386;2023-05-12T07:19:30;61328.44;;;-141.56;100.00
18790;BME280;9523;42.650;23.386;2023-05-12T07:22:00;61328.44;;;-141.56;100.00
18790;BME280;9523;42.650;23.386;2023-05-12T07:24:27;61328.44;;;-141.56;100.00
18790;BME280;9523;42.650;23.386;2023-05-12T07:26:57;61328.44;;;-141.56;100.00
18790;BME280;9523;42.650;23.386;2023-05-12T07:29:29;61328.44;;;-141.56;100.00
18790;BME280;9523;42.650;23.386;2023-05-12T07:31:58;61328.44;;;-141.56;100.00
18790;BME280;9523;42.650;23.386;2023-05-12T07:34:25;61328.44;;;-141.56;100.00
18790;BME280;9523;42.650;23.386;2023-05-12T07:36:56;61328.44;;;-141.56;100.00
18790;BME280;9523;42.650;23.386;2023-05-12T07:39:24;61328.44;;;-141.56;100.00
18790;BME280;9523;42.650;23.386;2023-05-12T07:41:51;61328.44;;;-141.56;100.00
18790;BME280;9523;42.650;23.386;2023-05-12T07:44:21;61328.44;;;-141.56;100.00
18790;BME280;9523;42.650;23.386;2023-05-12T07:46:52;61328.44;;;-141.56;100.00
18790;BME280;9523;42.650;23.386;2023-05-12T07:49:19;61328.44;;;-141.56;100.00
18790;BME280;9523;42.650;23.386;2023-05-12T07:51:47;61328.44;;;-141.56;100.00
18790;BME280;9523;42.650;23.386;2023-05-12T07:54:17;61328.44;;;-141.56;100.00
18790;BME280;9523;42.650;23.386;2023-05-12T07:56:44;61328.44;;;-141.56;100.00
18790;BME280;9523;42.650;23.386;2023-05-12T07:59:13;61328.44;;;-141.56;100.00
18790;BME280;9523;42.650;23.386;2023-05-12T08:01:40;61328.44;;;-141.56;100.00
18790;BME280;9523;42.650;23.386;2023-05-12T08:04:08;61328.44;;;-141.56;100.00
18790;BME280;9523;42.650;23.386;2023-05-12T08:06:35;61328.44;;;-141.56;100.00
18790;BME280;9523;42.650;23.386;2023-05-12T08:09:02;61328.44;;;-141.56;100.00
18790;BME280;9523;42.650;23.386;2023-05-12T08:11:29;61328.44;;;-141.56;100.00
18790;BME280;9523;42.650;23.386;2023-05-12T08:13:56;61328.44;;;-141.56;100.00
18790;BME280;9523;42.650;23.386;2023-05-12T08:16:23;61328.44;;;-141.56;100.00
18790;BME280;9523;42.650;23.386;2023-05-12T08:18:50;61328.44;;;-141.56;100.00
18790;BME280;9523;42.650;23.386;2023-05-12T08:21:18;61328.44;;;-141.56;100.00
18790;BME280;9523;42.650;23.386;2023-05-12T08:23:45;61328.44;;;-141.56;100.00
18790;BME280;9523;42.650;23.386;2023-05-12T08:26:12;61328.44;;;-141.56;100.00
18790;BME280;9523;42.650;23.386;2023-05-12T08:28:39;61328.44;;;-141.56;100.00
18790;BME280;9523;42.650;23.386;2023-05-12T08:31:06;61328.44;;;-141.56;100.00
18790;BME280;9523;42.650;23.386;2023-05-12T08:33:34;61328.44;;;-141.56;100.00
18790;BME280;9523;42.650;23.386;2023-05-12T08:36:01;61328.44;;;-141.56;100.00
18790;BME280;9523;42.650;23.386;2023-05-12T08:38:31;61328.44;;;-141.56;100.00
18790;BME280;9523;42.650;23.386;2023-05-12T08:41:10;61328.44;;;-141.56;100.00
18790;BME280;9523;42.650;23.386;2023-05-12T08:43:41;61328.44;;;-141.56;100.00
18790;BME280;9523;42.650;23.386;2023-05-12T08:46:10;61328.44;;;-141.56;100.00
18790;BME280;9523;42.650;23.386;2023-05-12T08:48:38;61328.44;;;-141.56;100.00
18790;BME280;9523;42.650;23.386;2023-05-12T08:51:06;61328.44;;;-141.56;100.00
18790;BME280;9523;42.650;23.386;2023-05-12T08:53:36;61328.44;;;-141.56;100.00
18790;BME280;9523;42.650;23.386;2023-05-12T08:56:05;61328.44;;;-141.56;100.00
18790;BME280;9523;42.650;23.386;2023-05-12T08:58:33;61328.44;;;-141.56;100.00
18790;BME280;9523;42.650;23.386;2023-05-12T09:01:02;61328.44;;;-141.56;100.00
18790;BME280;9523;42.650;23.386;2023-05-12T09:03:30;61328.44;;;-141.56;100.00
18790;BME280;9523;42.650;23.386;2023-05-12T09:05:58;61328.44;;;-141.56;100.00
18790;BME280;9523;42.650;23.386;2023-05-12T09:08:27;61328.44;;;-141.56;100.00
18790;BME280;9523;42.650;23.386;2023-05-12T09:10:55;61328.44;;;-141.56;100.00
18790;BME280;9523;42.650;23.386;2023-05-12T09:13:27;61328.44;;;-141.56;100.00
18790;BME280;9523;42.650;23.386;2023-05-12T09:15:59;61328.44;;;-141.56;100.00
18790;BME280;9523;42.650;23.386;2023-05-12T09:18:38;61328.44;;;-141.56;100.00
18790;BME280;9523;42.650;23.386;2023-05-12T09:21:09;61328.44;;;-141.56;100.00
18790;BME280;9523;42.650;23.386;2023-05-12T09:23:36;61328.44;;;-141.56;100.00
18790;BME280;9523;42.650;23.386;2023-05-12T09:26:05;61328.44;;;-141.56;100.00
18790;BME280;9523;42.650;23.386;2023-05-12T09:28:36;61328.44;;;-141.56;100.00
18790;BME280;9523;42.650;23.386;2023-05-12T09:31:13;61328.44;;;-141.56;100.00
18790;BME280;9523;42.650;23.386;2023-05-12T09:33:41;61328.44;;;-141.56;100.00
18790;BME280;9523;42.650;23.386;2023-05-12T09:36:11;61328.44;;;-141.56;100.00
18790;BME280;9523;42.650;23.386;2023-05-12T09:38:39;61328.44;;;-141.56;100.00
18790;BME280;9523;42.650;23.386;2023-05-12T09:41:07;61328.44;;;-141.56;100.00
18790;BME280;9523;42.650;23.386;2023-05-12T09:43:34;61328.44;;;-141.56;100.00
18790;BME280;9523;42.650;23.386;2023-05-12T09:46:05;61328.44;;;-141.56;100.00
18790;BME280;9523;42.650;23.386;2023-05-12T09:48:31;61328.44;;;-141.56;100.00
18790;BME280;9523;42.650;23.386;2023-05-12T09:50:58;61328.44;;;-141.56;100.00
18790;BME280;9523;42.650;23.386;2023-05-12T09:53:26;61328.44;;;-141.56;100.00
18790;BME280;9523;42.650;23.386;2023-05-12T09:55:52;61328.44;;;-141.56;100.00
18790;BME280;9523;42.650;23.386;2023-05-12T09:58:25;61328.44;;;-141.56;100.00
18790;BME280;9523;42.650;23.386;2023-05-12T10:00:55;61328.44;;;-141.56;100.00
18790;BME280;9523;42.650;23.386;2023-05-12T10:03:25;61328.44;;;-141.56;100.00
18790;BME280;9523;42.650;23.386;2023-05-12T10:05:57;61328.44;;;-141.56;100.00
18790;BME280;9523;42.650;23.386;2023-05-12T10:08:25;61328.44;;;-141.56;100.00
18790;BME280;9523;42.650;23.386;2023-05-12T10:10:55;61328.44;;;-141.56;100.00
18790;BME280;9523;42.650;23.386;2023-05-12T10:13:26;61328.44;;;-141.56;100.00
18790;BME280;9523;42.650;23.386;2023-05-12T10:15:55;61328.44;;;-141.56;100.00
18790;BME280;9523;42.650;23.386;2023-05-12T10:18:23;61328.44;;;-141.56;100.00
18790;BME280;9523;42.650;23.386;2023-05-12T10:20:52;61328.44;;;-141.56;100.00
18790;BME280;9523;42.650;23.386;2023-05-12T10:23:22;61328.44;;;-141.56;100.00
18790;BME280;9523;42.650;23.386;2023-05-12T10:25:53;61328.44;;;-141.56;100.00
18790;BME280;9523;42.650;23.386;2023-05-12T10:28:26;61328.44;;;-141.56;100.00
18790;BME280;9523;42.650;23.386;2023-05-12T10:30:55;61328.44;;;-141.56;100.00
18790;BME280;9523;42.650;23.386;2023-05-12T10:33:22;61328.44;;;-141.56;100.00
18790;BME280;9523;42.650;23.386;2023-05-12T10:35:50;61328.44;;;-141.56;100.00
18790;BME280;9523;42.650;23.386;2023-05-12T10:38:18;61328.44;;;-141.56;100.00
18790;BME280;9523;42.650;23.386;2023-05-12T10:40:51;61328.44;;;-141.56;100.00
18790;BME280;9523;42.650;23.386;2023-05-12T10:43:22;61328.44;;;-141.56;100.00
18790;BME280;9523;42.650;23.386;2023-05-12T10:46:08;61328.44;;;-141.56;100.00
18790;BME280;9523;42.650;23.386;2023-05-12T10:48:48;61328.44;;;-141.56;100.00
18790;BME280;9523;42.650;23.386;2023-05-12T10:51:18;61328.44;;;-141.56;100.00
18790;BME280;9523;42.650;23.386;2023-05-12T10:53:50;61328.44;;;-141.56;100.00
18790;BME280;9523;42.650;23.386;2023-05-12T10:56:21;61328.44;;;-141.56;100.00
18790;BME280;9523;42.650;23.386;2023-05-12T11:01:59;61328.44;;;-141.56;100.00
18790;BME280;9523;42.650;23.386;2023-05-12T11:04:38;61328.44;;;-141.56;100.00
18790;BME280;9523;42.650;23.386;2023-05-12T11:07:09;61328.44;;;-141.56;100.00
18790;BME280;9523;42.650;23.386;2023-05-12T11:09:38;61328.44;;;-141.56;100.00
18790;BME280;9523;42.650;23.386;2023-05-12T11:12:06;61328.44;;;-141.56;100.00
18790;BME280;9523;42.650;23.386;2023-05-12T11:14:33;61328.44;;;-141.56;100.00
18790;BME280;9523;42.650;23.386;2023-05-12T11:17:02;61328.44;;;-141.56;100.00
18790;BME280;9523;42.650;23.386;2023-05-12T11:19:29;61328.44;;;-141.56;100.00
18790;BME280;9523;42.650;23.386;2023-05-12T11:21:56;61328.44;;;-141.56;100.00
18790;BME280;9523;42.650;23.386;2023-05-12T11:24:23;61328.44;;;-141.56;100.00
18790;BME280;9523;42.650;23.386;2023-05-12T11:26:50;61328.44;;;-141.56;100.00
18790;BME280;9523;42.650;23.386;2023-05-12T11:29:20;61328.44;;;-141.56;100.00
18790;BME280;9523;42.650;23.386;2023-05-12T11:31:48;61328.44;;;-141.56;100.00
18790;BME280;9523;42.650;23.386;2023-05-12T11:34:20;61328.44;;;-141.56;100.00
18790;BME280;9523;42.650;23.386;2023-05-12T11:36:49;61328.44;;;-141.56;100.00
18790;BME280;9523;42.650;23.386;2023-05-12T11:39:17;61328.44;;;-141.56;100.00
18790;BME280;9523;42.650;23.386;2023-05-12T11:41:45;61328.44;;;-141.56;100.00
18790;BME280;9523;42.650;23.386;2023-05-12T11:44:13;61328.44;;;-141.56;100.00
18790;BME280;9523;42.650;23.386;2023-05-12T11:46:41;61328.44;;;-141.56;100.00
18790;BME280;9523;42.650;23.386;2023-05-12T11:49:10;61328.44;;;-141.56;100.00
18790;BME280;9523;42.650;23.386;2023-05-12T11:51:44;61328.44;;;-141.56;100.00
18790;BME280;9523;42.650;23.386;2023-05-12T11:54:11;61328.44;;;-141.56;100.00
18790;BME280;9523;42.650;23.386;2023-05-12T11:56:38;61328.44;;;-141.56;100.00
18790;BME280;9523;42.650;23.386;2023-05-12T11:59:12;61328.44;;;-141.56;100.00
18790;BME280;9523;42.650;23.386;2023-05-12T12:01:43;61328.44;;;-141.56;100.00
18790;BME280;9523;42.650;23.386;2023-05-12T12:04:11;61328.44;;;-141.56;100.00
18790;BME280;9523;42.650;23.386;2023-05-12T12:06:44;61328.44;;;-141.56;100.00
18790;BME280;9523;42.650;23.386;2023-05-12T12:09:11;61328.44;;;-141.56;100.00
18790;BME280;9523;42.650;23.386;2023-05-12T12:11:39;61328.44;;;-141.56;100.00
18790;BME280;9523;42.650;23.386;2023-05-12T12:14:06;61328.44;;;-141.56;100.00
18790;BME280;9523;42.650;23.386;2023-05-12T12:16:33;61328.44;;;-141.56;100.00
18790;BME280;9523;42.650;23.386;2023-05-12T12:19:00;61328.44;;;-141.56;100.00
18790;BME280;9523;42.650;23.386;2023-05-12T12:21:30;61328.44;;;-141.56;100.00
18790;BME280;9523;42.650;23.386;2023-05-12T12:23:58;61328.44;;;-141.56;100.00
18790;BME280;9523;42.650;23.386;2023-05-12T12:26:25;61328.44;;;-141.56;100.00
18790;BME280;9523;42.650;23.386;2023-05-12T12:28:55;61328.44;;;-141.56;100.00
18790;BME280;9523;42.650;23.386;2023-05-12T12:31:22;61328.44;;;-141.56;100.00
18790;BME280;9523;42.650;23.386;2023-05-12T12:33:49;61328.44;;;-141.56;100.00
18790;BME280;9523;42.650;23.386;2023-05-12T12:36:16;61328.44;;;-141.56;100.00
18790;BME280;9523;42.650;23.386;2023-05-12T12:38:44;61328.44;;;-141.56;100.00
18790;BME280;9523;42.650;23.386;2023-05-12T12:41:13;61328.44;;;-141.56;100.00
18790;BME280;9523;42.650;23.386;2023-05-12T12:43:40;61328.44;;;-141.56;100.00
18790;BME280;9523;42.650;23.386;2023-05-12T12:46:12;61328.44;;;-141.56;100.00
18790;BME280;9523;42.650;23.386;2023-05-12T12:48:39;61328.44;;;-141.56;100.00